Time;durP1;ratioP1;P1;durP2;ratioP2;P2;SDS_P1;SDS_P2;PMS_P1;PMS_P2;Temp;Humidity;BMP_temperature;BMP_pressure;BME280_temperature;BME280_humidity;BME280_pressure;Samples;Min_cycle;Max_cycle;Signal;HPM_P1;HPM_P2
2024/01/17 00:02:54;;;;;;;;;;;-1.00;99.90;;;;;;8457917;27;20290;-72
2024/01/17 00:06:55;;;;;;;;;;;-1.10;99.90;;;;;;8458720;28;19924;-72
2024/01/17 00:10:57;;;;;;;;;;;-1.10;99.90;;;;;;8439594;27;19959;-72
2024/01/17 00:14:59;;;;;;;;;;;-1.10;99.90;;;;;;8455800;28;20435;-72
2024/01/17 00:19:01;;;;;;;;;;;-1.20;99.90;;;;;;8439877;28;19930;-72
2024/01/17 00:23:03;;;;;;;;;;;-1.20;99.90;;;;;;8450046;28;19924;-72
2024/01/17 00:27:05;;;;;;;;;;;-1.20;99.90;;;;;;8447634;28;19924;-72
2024/01/17 00:31:06;;;;;;;;;;;-1.20;99.90;;;;;;8440171;28;19924;-72
2024/01/17 00:35:09;;;;;;;;;;;-1.20;99.90;;;;;;8438615;28;19924;-72
2024/01/17 00:39:13;;;;;;;;;;;-1.20;99.90;;;;;;8440630;28;19966;-72
2024/01/17 00:43:15;;;;;;;;;;;-1.20;99.90;;;;;;8437574;28;20366;-72
2024/01/17 00:47:16;;;;;;;;;;;-1.20;99.90;;;;;;8456060;28;19924;-72
2024/01/17 00:51:22;;;;;;;;;;;-1.20;99.90;;;;;;8458101;28;19928;-72
2024/01/17 00:55:24;;;;;;;;;;;-1.20;99.90;;;;;;8437561;28;19924;-72
2024/01/17 00:59:26;;;;;;;;;;;-1.10;99.90;;;;;;8455286;28;19924;-72
2024/01/17 01:03:27;;;;;;;;;;;-1.10;99.90;;;;;;8449449;28;19932;-72
2024/01/17 01:07:29;;;;;;;;;;;-1.00;99.90;;;;;;8456536;28;19927;-71
2024/01/17 01:11:32;;;;;;;;;;;-1.00;99.90;;;;;;8457459;28;19924;-72
2024/01/17 01:16:00;;;;;;;;;;;-1.00;99.90;;;;;;8452100;28;19930;-72
2024/01/17 01:20:02;;;;;;;;;;;-1.00;99.90;;;;;;8436050;28;20382;-72
2024/01/17 01:24:04;;;;;;;;;;;-1.00;99.90;;;;;;8435210;28;19923;-72
2024/01/17 01:28:05;;;;;;;;;;;-1.00;99.90;;;;;;8444791;28;19924;-71
2024/01/17 01:32:07;;;;;;;;;;;-1.00;99.90;;;;;;8437296;28;19949;-72
2024/01/17 01:36:09;;;;;;;;;;;-1.00;99.90;;;;;;8432214;28;19947;-72
2024/01/17 01:40:11;;;;;;;;;;;-1.00;99.90;;;;;;8451953;28;19977;-72
2024/01/17 01:44:14;;;;;;;;;;;-0.90;99.90;;;;;;8450024;28;20279;-71
2024/01/17 01:48:21;;;;;;;;;;;-1.00;99.90;;;;;;8457168;28;19924;-71
2024/01/17 01:52:24;;;;;;;;;;;-1.00;99.90;;;;;;8436676;28;19946;-71
2024/01/17 01:56:29;;;;;;;;;;;-1.00;99.90;;;;;;8454140;28;19923;-72
2024/01/17 02:00:31;;;;;;;;;;;-1.00;99.90;;;;;;8439222;28;19924;-71
2024/01/17 02:04:34;;;;;;;;;;;-1.10;99.90;;;;;;8472020;27;20402;-71
2024/01/17 02:08:36;;;;;;;;;;;-1.10;99.90;;;;;;8455800;28;19924;-71
2024/01/17 02:12:38;;;;;;;;;;;-1.20;99.90;;;;;;8462579;28;19975;-71
2024/01/17 02:16:41;;;;;;;;;;;-1.20;99.90;;;;;;8454684;27;20405;-71
2024/01/17 02:20:42;;;;;;;;;;;-1.20;99.90;;;;;;8462550;28;19931;-71
2024/01/17 02:24:44;;;;;;;;;;;-1.10;99.90;;;;;;8440843;27;19946;-71
2024/01/17 02:28:46;;;;;;;;;;;-1.20;99.90;;;;;;8455466;27;19931;-71
2024/01/17 02:32:48;;;;;;;;;;;-1.10;99.90;;;;;;8443892;28;20945;-71
2024/01/17 02:36:50;;;;;;;;;;;-1.10;99.90;;;;;;8450480;28;19967;-71
2024/01/17 02:40:52;;;;;;;;;;;-1.10;99.90;;;;;;8447183;28;20384;-71
2024/01/17 02:50:04;;;;;;;;;;;-1.10;99.90;;;;;;8460896;27;20063;-70
2024/01/17 02:54:06;;;;;;;;;;;-1.10;99.90;;;;;;8460641;28;19930;-71
2024/01/17 02:58:08;;;;;;;;;;;-1.10;99.90;;;;;;8453937;28;19967;-71
2024/01/17 03:02:09;;;;;;;;;;;-1.10;99.90;;;;;;8443457;28;19928;-71
2024/01/17 03:06:11;;;;;;;;;;;-1.20;99.90;;;;;;8457796;27;19938;-71
2024/01/17 03:10:13;;;;;;;;;;;-1.20;99.90;;;;;;8460607;28;19927;-71
2024/01/17 03:14:15;;;;;;;;;;;-1.20;99.90;;;;;;8459451;28;19928;-70
2024/01/17 03:18:17;;;;;;;;;;;-1.30;99.90;;;;;;8455434;27;19967;-70
2024/01/17 03:22:19;;;;;;;;;;;-1.30;99.90;;;;;;8441456;28;19923;-70
2024/01/17 03:26:22;;;;;;;;;;;-1.30;99.90;;;;;;8455542;27;19924;-70
2024/01/17 03:30:23;;;;;;;;;;;-1.30;99.90;;;;;;8436423;28;19931;-70
2024/01/17 03:34:25;;;;;;;;;;;-1.30;99.90;;;;;;8458854;28;20278;-70
2024/01/17 03:38:27;;;;;;;;;;;-1.30;99.90;;;;;;8458245;28;19931;-70
2024/01/17 03:42:38;;;;;;;;;;;-1.30;99.90;;;;;;8440408;28;19931;-70
2024/01/17 03:46:40;;;;;;;;;;;-1.30;99.90;;;;;;8455995;28;19973;-70
2024/01/17 03:50:42;;;;;;;;;;;-1.30;99.90;;;;;;8458002;28;19923;-70
2024/01/17 03:54:44;;;;;;;;;;;-1.20;99.90;;;;;;8457583;28;20014;-70
2024/01/17 03:58:46;;;;;;;;;;;-1.20;99.90;;;;;;8435159;28;20408;-70
2024/01/17 04:02:48;;;;;;;;;;;-1.20;99.90;;;;;;8458789;28;19928;-70
2024/01/17 04:11:46;;;;;;;;;;;-1.20;99.90;;;;;;8458973;28;19937;-70
2024/01/17 04:15:48;;;;;;;;;;;-1.20;99.90;;;;;;8439660;28;19969;-70
2024/01/17 04:19:50;;;;;;;;;;;-1.20;99.90;;;;;;8449459;28;19931;-70
2024/01/17 04:23:52;;;;;;;;;;;-1.20;99.90;;;;;;8455764;28;19932;-70
2024/01/17 04:27:53;;;;;;;;;;;-1.20;99.90;;;;;;8448433;28;19924;-70
2024/01/17 04:31:56;;;;;;;;;;;-1.20;99.90;;;;;;8454722;28;19931;-70
2024/01/17 04:35:59;;;;;;;;;;;-1.20;99.90;;;;;;8456480;28;19935;-70
2024/01/17 04:40:01;;;;;;;;;;;-1.10;99.90;;;;;;8451110;28;19929;-70
2024/01/17 04:44:02;;;;;;;;;;;-1.10;99.90;;;;;;8457023;28;19928;-70
2024/01/17 04:48:07;;;;;;;;;;;-1.10;99.90;;;;;;8439913;28;19976;-70
2024/01/17 04:52:09;;;;;;;;;;;-1.10;99.90;;;;;;8427752;28;19924;-70
2024/01/17 04:56:24;;;;;;;;;;;-1.10;99.90;;;;;;8436346;28;19924;-70
2024/01/17 05:00:26;;;;;;;;;;;-1.10;99.90;;;;;;8452097;28;19935;-70
2024/01/17 05:04:28;;;;;;;;;;;-1.10;99.90;;;;;;8434697;28;19924;-70
2024/01/17 05:08:29;;;;;;;;;;;-1.10;99.90;;;;;;8453328;28;19923;-70
2024/01/17 05:12:32;;;;;;;;;;;-1.10;99.90;;;;;;8451587;28;19924;-70
2024/01/17 05:16:34;;;;;;;;;;;-1.10;99.90;;;;;;8446544;28;19935;-70
2024/01/17 05:20:36;;;;;;;;;;;-1.10;99.90;;;;;;8450436;28;19932;-70
2024/01/17 05:24:38;;;;;;;;;;;-1.10;99.90;;;;;;8420794;28;19993;-70
2024/01/17 05:28:40;;;;;;;;;;;-1.20;99.90;;;;;;8453555;28;19930;-70
2024/01/17 05:32:41;;;;;;;;;;;-1.20;99.90;;;;;;8453553;28;20600;-70
2024/01/17 05:36:43;;;;;;;;;;;-1.20;99.90;;;;;;8459033;28;19923;-70
2024/01/17 05:40:45;;;;;;;;;;;-1.20;99.90;;;;;;8444023;28;20275;-70
2024/01/17 05:44:47;;;;;;;;;;;-1.20;99.90;;;;;;8460412;27;19924;-70
2024/01/17 05:48:48;;;;;;;;;;;-1.20;99.90;;;;;;8464426;28;19931;-70
2024/01/17 05:52:50;;;;;;;;;;;-1.30;99.90;;;;;;8444899;28;19924;-70
2024/01/17 05:56:52;;;;;;;;;;;-1.30;99.90;;;;;;8462182;28;19930;-70
2024/01/17 06:00:54;;;;;;;;;;;-1.30;99.90;;;;;;8462806;28;19984;-70
2024/01/17 06:10:00;;;;;;;;;;;-1.30;99.90;;;;;;8458175;28;19965;-70
2024/01/17 06:14:03;;;;;;;;;;;-1.30;99.90;;;;;;8455555;27;20425;-70
2024/01/17 06:18:05;;;;;;;;;;;-1.30;99.90;;;;;;8463173;28;19976;-70
2024/01/17 06:22:32;;;;;;;;;;;-1.40;99.90;;;;;;8472042;27;19932;-70
2024/01/17 06:26:33;;;;;;;;;;;-1.40;99.90;;;;;;8434504;28;19935;-70
2024/01/17 06:30:35;;;;;;;;;;;-1.40;99.90;;;;;;8456314;28;19923;-70
2024/01/17 06:34:37;;;;;;;;;;;-1.40;99.90;;;;;;8457775;28;19928;-70
2024/01/17 06:38:39;;;;;;;;;;;-1.40;99.90;;;;;;8444622;28;19924;-70
2024/01/17 06:42:41;;;;;;;;;;;-1.40;99.90;;;;;;8460490;28;19931;-69
2024/01/17 06:46:43;;;;;;;;;;;-1.40;99.90;;;;;;8457406;28;19977;-70
2024/01/17 06:50:45;;;;;;;;;;;-1.40;99.90;;;;;;8461642;28;19924;-70
2024/01/17 06:54:46;;;;;;;;;;;-1.50;99.90;;;;;;8438838;27;20375;-70
2024/01/17 06:58:48;;;;;;;;;;;-1.50;99.90;;;;;;8458985;28;19924;-70
2024/01/17 07:02:50;;;;;;;;;;;-1.40;99.90;;;;;;8440050;28;19930;-70
2024/01/17 07:06:51;;;;;;;;;;;-1.40;99.90;;;;;;8454055;27;19930;-70
2024/01/17 07:10:53;;;;;;;;;;;-1.40;99.90;;;;;;8459102;28;19924;-70
2024/01/17 07:14:55;;;;;;;;;;;-1.40;99.90;;;;;;8457692;28;19927;-70
2024/01/17 07:18:58;;;;;;;;;;;-1.40;99.90;;;;;;8462105;28;19934;-70
2024/01/17 07:23:00;;;;;;;;;;;-1.40;99.90;;;;;;8458075;28;19927;-70
2024/01/17 07:27:02;;;;;;;;;;;-1.40;99.90;;;;;;8448664;28;19924;-70
2024/01/17 07:31:04;;;;;;;;;;;-1.40;99.90;;;;;;8460862;28;20468;-70
2024/01/17 07:35:06;;;;;;;;;;;-1.40;99.90;;;;;;8452905;28;19935;-70
2024/01/17 07:39:10;;;;;;;;;;;-1.40;99.90;;;;;;8442639;28;19924;-70
2024/01/17 07:43:12;;;;;;;;;;;-1.40;99.90;;;;;;8440062;28;20438;-70
2024/01/17 07:47:15;;;;;;;;;;;-1.30;99.90;;;;;;8454541;28;19931;-70
2024/01/17 07:51:16;;;;;;;;;;;-1.40;99.90;;;;;;8461536;28;19973;-70
2024/01/17 07:55:18;;;;;;;;;;;-1.40;99.90;;;;;;8469492;27;19924;-70
2024/01/17 07:59:20;;;;;;;;;;;-1.40;99.90;;;;;;8441457;28;20291;-70
2024/01/17 08:03:22;;;;;;;;;;;-1.30;99.90;;;;;;8441811;28;19923;-70
2024/01/17 08:07:26;;;;;;;;;;;-1.30;99.90;;;;;;8448436;27;19988;-70
2024/01/17 08:11:28;;;;;;;;;;;-1.30;99.90;;;;;;8456474;28;20432;-70
2024/01/17 08:15:31;;;;;;;;;;;-1.30;99.90;;;;;;8459012;28;19936;-70
2024/01/17 08:19:32;;;;;;;;;;;-1.30;99.90;;;;;;8440782;28;19977;-70
2024/01/17 08:23:36;;;;;;;;;;;-1.20;99.90;;;;;;8458560;28;20294;-70
2024/01/17 08:27:38;;;;;;;;;;;-1.20;99.90;;;;;;8449404;28;19971;-70
2024/01/17 08:36:43;;;;;;;;;;;-1.20;99.90;;;;;;8453942;28;20278;-70
2024/01/17 08:40:44;;;;;;;;;;;-1.10;99.90;;;;;;8439108;27;19924;-70
2024/01/17 08:44:46;;;;;;;;;;;-1.00;99.90;;;;;;8455800;28;19936;-70
2024/01/17 08:48:48;;;;;;;;;;;-0.90;99.90;;;;;;8442435;28;19930;-70
2024/01/17 08:52:50;;;;;;;;;;;-0.90;99.90;;;;;;8454829;27;20014;-70
2024/01/17 08:56:52;;;;;;;;;;;-0.90;99.90;;;;;;8442157;28;19949;-70
2024/01/17 09:00:53;;;;;;;;;;;-0.80;99.90;;;;;;8453420;28;19931;-70
2024/01/17 09:04:55;;;;;;;;;;;-0.80;99.90;;;;;;8450711;28;19924;-70
2024/01/17 09:08:57;;;;;;;;;;;-0.70;99.90;;;;;;8449920;28;20106;-70
2024/01/17 09:12:58;;;;;;;;;;;-0.60;99.90;;;;;;8448856;28;20420;-70
2024/01/17 09:17:03;;;;;;;;;;;-0.60;99.90;;;;;;8469421;27;19923;-70
2024/01/17 09:21:04;;;;;;;;;;;-0.50;99.90;;;;;;8454237;28;19931;-70
2024/01/17 09:25:34;;;;;;;;;;;-0.50;99.90;;;;;;8442557;28;20515;-70
2024/01/17 09:29:36;;;;;;;;;;;-0.50;99.90;;;;;;8437764;28;19963;-70
2024/01/17 09:33:38;;;;;;;;;;;-0.40;99.90;;;;;;8430572;28;20463;-70
2024/01/17 09:37:39;;;;;;;;;;;-0.40;99.90;;;;;;8454172;28;19930;-70
2024/01/17 09:41:41;;;;;;;;;;;-0.40;99.90;;;;;;8457197;28;19924;-70
2024/01/17 09:45:44;;;;;;;;;;;-0.30;99.90;;;;;;8442510;28;19969;-70
2024/01/17 09:49:45;;;;;;;;;;;-0.30;99.90;;;;;;8437217;28;19923;-71
2024/01/17 09:53:48;;;;;;;;;;;-0.30;99.90;;;;;;8447986;28;19924;-70
2024/01/17 09:57:52;;;;;;;;;;;-0.30;99.90;;;;;;8454635;28;19932;-70
2024/01/17 10:01:55;;;;;;;;;;;-0.30;99.90;;;;;;8456534;28;19969;-70
2024/01/17 10:05:56;;;;;;;;;;;-0.30;99.90;;;;;;8439705;28;19931;-70
2024/01/17 10:09:58;;;;;;;;;;;-0.30;99.90;;;;;;8456551;28;19924;-70
2024/01/17 10:14:01;;;;;;;;;;;-0.20;99.90;;;;;;8455526;28;19932;-70
2024/01/17 10:18:02;;;;;;;;;;;-0.20;99.90;;;;;;8470978;28;19985;-70
2024/01/17 10:22:06;;;;;;;;;;;-0.30;99.90;;;;;;8457077;28;19928;-70
2024/01/17 10:26:08;;;;;;;;;;;-0.20;99.90;;;;;;8464636;27;20375;-70
2024/01/17 10:30:11;;;;;;;;;;;-0.10;99.90;;;;;;8455894;28;19924;-70
2024/01/17 10:34:13;;;;;;;;;;;0.00;99.90;;;;;;8462089;28;19928;-70
2024/01/17 10:38:15;;;;;;;;;;;0.00;99.90;;;;;;8440304;28;20294;-70
2024/01/17 10:42:18;;;;;;;;;;;0.10;99.90;;;;;;8442241;28;19931;-70
2024/01/17 10:46:19;;;;;;;;;;;0.10;99.90;;;;;;8455111;28;19923;-70
2024/01/17 10:50:21;;;;;;;;;;;0.20;99.90;;;;;;8458788;28;19936;-70
2024/01/17 10:54:25;;;;;;;;;;;0.20;99.90;;;;;;8455374;28;19927;-70
2024/01/17 10:58:28;;;;;;;;;;;0.20;99.90;;;;;;8452482;27;19932;-70
2024/01/17 11:02:31;;;;;;;;;;;0.30;99.90;;;;;;8436122;28;19956;-70
2024/01/17 11:06:33;;;;;;;;;;;0.30;99.90;;;;;;8457479;28;19924;-70
2024/01/17 11:10:35;;;;;;;;;;;0.40;99.90;;;;;;8439036;28;19924;-70
2024/01/17 11:14:38;;;;;;;;;;;0.40;99.90;;;;;;8443364;28;19924;-70
2024/01/17 11:23:53;;;;;;;;;;;0.40;99.90;;;;;;8452834;28;19919;-70
2024/01/17 11:28:04;;;;;;;;;;;0.50;99.90;;;;;;8419050;28;19924;-70
2024/01/17 11:32:09;;;;;;;;;;;0.50;99.90;;;;;;8460424;28;19930;-70
2024/01/17 11:36:29;;;;;;;;;;;0.60;99.90;;;;;;8455104;28;19923;-70
2024/01/17 11:40:32;;;;;;;;;;;0.50;99.90;;;;;;8451533;27;19924;-70
2024/01/17 11:44:34;;;;;;;;;;;0.60;99.90;;;;;;8456675;28;19923;-70
2024/01/17 11:49:00;;;;;;;;;;;0.60;99.90;;;;;;8458648;28;19931;-70
2024/01/17 11:53:03;;;;;;;;;;;0.60;99.90;;;;;;8459522;28;19924;-70
2024/01/17 11:57:06;;;;;;;;;;;0.60;99.90;;;;;;8467709;27;19927;-71
2024/01/17 12:01:16;;;;;;;;;;;0.60;99.90;;;;;;8458431;27;19924;-70
2024/01/17 12:05:19;;;;;;;;;;;0.70;99.90;;;;;;8458672;28;19965;-71
2024/01/17 12:09:21;;;;;;;;;;;0.70;99.90;;;;;;8457315;28;20374;-70
2024/01/17 12:13:26;;;;;;;;;;;0.70;99.90;;;;;;8457276;27;19924;-71
2024/01/17 12:17:28;;;;;;;;;;;0.70;99.90;;;;;;8457300;28;19931;-70
2024/01/17 12:21:30;;;;;;;;;;;0.70;99.90;;;;;;8453683;27;19928;-71
2024/01/17 12:25:33;;;;;;;;;;;0.70;99.90;;;;;;8433917;28;19932;-71
2024/01/17 12:29:36;;;;;;;;;;;0.70;99.90;;;;;;8430482;28;19928;-71
2024/01/17 12:33:38;;;;;;;;;;;0.70;99.90;;;;;;8419008;28;20368;-71
2024/01/17 12:37:40;;;;;;;;;;;0.80;99.90;;;;;;8420654;28;21497;-71
2024/01/17 12:41:42;;;;;;;;;;;0.70;99.90;;;;;;8419563;28;20434;-71
2024/01/17 12:45:46;;;;;;;;;;;0.80;99.90;;;;;;8419388;28;20198;-71
2024/01/17 12:49:48;;;;;;;;;;;0.80;99.90;;;;;;8417383;28;19965;-71
2024/01/17 12:53:53;;;;;;;;;;;0.80;99.90;;;;;;8415016;28;19977;-71
2024/01/17 12:57:55;;;;;;;;;;;0.80;99.90;;;;;;8423398;28;19928;-71
2024/01/17 13:01:59;;;;;;;;;;;0.80;99.90;;;;;;8423929;28;19924;-71
2024/01/17 13:06:06;;;;;;;;;;;0.90;99.90;;;;;;8421183;28;19932;-71
2024/01/17 13:10:15;;;;;;;;;;;0.80;99.90;;;;;;8415221;28;19967;-71
2024/01/17 13:14:17;;;;;;;;;;;0.80;99.90;;;;;;8424473;28;19931;-71
2024/01/17 13:18:28;;;;;;;;;;;0.80;99.90;;;;;;8420634;28;19943;-71
2024/01/17 13:22:32;;;;;;;;;;;0.70;99.90;;;;;;8412804;28;19958;-71
2024/01/17 13:26:35;;;;;;;;;;;0.70;99.90;;;;;;8417992;28;19947;-71
2024/01/17 13:30:37;;;;;;;;;;;0.70;99.90;;;;;;8419616;28;19928;-71
2024/01/17 13:34:40;;;;;;;;;;;0.70;99.90;;;;;;8417639;28;20750;-71
2024/01/17 13:38:42;;;;;;;;;;;0.70;99.90;;;;;;8414126;28;20242;-72
2024/01/17 13:42:44;;;;;;;;;;;0.60;99.90;;;;;;8421647;28;19924;-71
2024/01/17 13:46:46;;;;;;;;;;;0.60;99.90;;;;;;8421649;28;19935;-71
2024/01/17 13:50:48;;;;;;;;;;;0.60;99.90;;;;;;8405207;28;19935;-71
2024/01/17 13:54:50;;;;;;;;;;;0.60;99.90;;;;;;8418482;28;20344;-72
2024/01/17 13:58:52;;;;;;;;;;;0.60;99.90;;;;;;8409150;28;20023;-71
2024/01/17 14:02:58;;;;;;;;;;;0.70;99.90;;;;;;8425496;28;19969;-71
2024/01/17 14:07:00;;;;;;;;;;;0.70;99.90;;;;;;8427586;28;19932;-71
2024/01/17 14:11:03;;;;;;;;;;;0.70;99.90;;;;;;8425668;28;19970;-71
2024/01/17 14:15:06;;;;;;;;;;;0.70;99.90;;;;;;8428341;28;19924;-72
2024/01/17 14:19:07;;;;;;;;;;;0.70;99.90;;;;;;8417579;27;19939;-72
2024/01/17 14:23:10;;;;;;;;;;;0.70;99.90;;;;;;8411942;28;19928;-71
2024/01/17 14:27:11;;;;;;;;;;;0.70;99.90;;;;;;8428504;28;20451;-71
2024/01/17 14:31:14;;;;;;;;;;;0.70;99.90;;;;;;8407231;28;19992;-72
2024/01/17 14:35:16;;;;;;;;;;;0.70;99.90;;;;;;8419431;28;20298;-71
2024/01/17 14:39:22;;;;;;;;;;;0.70;99.90;;;;;;8409017;28;19927;-72
2024/01/17 14:43:24;;;;;;;;;;;0.70;99.90;;;;;;8427895;28;20026;-71
2024/01/17 14:47:27;;;;;;;;;;;0.70;99.90;;;;;;8425316;28;20371;-72
2024/01/17 14:51:29;;;;;;;;;;;0.70;99.90;;;;;;8425077;28;19977;-71
2024/01/17 14:55:32;;;;;;;;;;;0.70;99.90;;;;;;8422144;28;20356;-71
2024/01/17 14:59:36;;;;;;;;;;;0.70;99.90;;;;;;8429898;28;19932;-71
2024/01/17 15:03:38;;;;;;;;;;;0.70;99.90;;;;;;8435208;27;19928;-71
2024/01/17 15:07:40;;;;;;;;;;;0.60;99.90;;;;;;8439654;28;20343;-71
2024/01/17 15:11:42;;;;;;;;;;;0.60;99.90;;;;;;8419719;28;19939;-71
2024/01/17 15:15:44;;;;;;;;;;;0.60;99.90;;;;;;8423779;28;20024;-72
2024/01/17 15:19:46;;;;;;;;;;;0.60;99.90;;;;;;8418458;28;19924;-71
2024/01/17 15:23:48;;;;;;;;;;;0.60;99.90;;;;;;8417227;28;19962;-71
2024/01/17 15:27:49;;;;;;;;;;;0.50;99.90;;;;;;8426412;28;19924;-72
2024/01/17 15:31:51;;;;;;;;;;;0.50;99.90;;;;;;8426700;28;19931;-72
2024/01/17 15:35:53;;;;;;;;;;;0.50;99.90;;;;;;8426397;28;19924;-71
2024/01/17 15:39:55;;;;;;;;;;;0.50;99.90;;;;;;8435240;28;19924;-72
2024/01/17 15:43:56;;;;;;;;;;;0.50;99.90;;;;;;8425383;28;19966;-71
2024/01/17 15:47:58;;;;;;;;;;;0.40;99.90;;;;;;8422595;27;19947;-72
2024/01/17 15:52:00;;;;;;;;;;;0.40;99.90;;;;;;8427130;28;21754;-71
2024/01/17 15:56:03;;;;;;;;;;;0.50;99.90;;;;;;8429312;28;20001;-71
2024/01/17 16:00:09;;;;;;;;;;;0.40;99.90;;;;;;8427302;28;19928;-71
2024/01/17 16:04:11;;;;;;;;;;;0.40;99.90;;;;;;8425153;28;19931;-71
2024/01/17 16:08:13;;;;;;;;;;;0.40;99.90;;;;;;8421246;28;20439;-71
2024/01/17 16:12:15;;;;;;;;;;;0.40;99.90;;;;;;8423733;28;20280;-71
2024/01/17 16:16:17;;;;;;;;;;;0.40;99.90;;;;;;8418394;28;19928;-71
2024/01/17 16:20:20;;;;;;;;;;;0.40;99.90;;;;;;8414432;28;20391;-72
2024/01/17 16:24:25;;;;;;;;;;;0.30;99.90;;;;;;8412261;28;20027;-71
2024/01/17 16:28:27;;;;;;;;;;;0.30;99.90;;;;;;8414317;28;19975;-72
2024/01/17 16:32:28;;;;;;;;;;;0.30;99.90;;;;;;8424689;28;19924;-71
2024/01/17 16:36:30;;;;;;;;;;;0.30;99.90;;;;;;8426843;28;19997;-71
2024/01/17 16:40:32;;;;;;;;;;;0.30;99.90;;;;;;8422374;28;19947;-71
2024/01/17 16:44:33;;;;;;;;;;;0.30;99.90;;;;;;8402987;28;19931;-71
2024/01/17 16:48:35;;;;;;;;;;;0.30;99.90;;;;;;8425022;27;19924;-72
2024/01/17 16:52:37;;;;;;;;;;;0.30;99.90;;;;;;8418915;28;19925;-72
2024/01/17 16:56:39;;;;;;;;;;;0.30;99.90;;;;;;8406434;28;19928;-71
2024/01/17 17:00:41;;;;;;;;;;;0.30;99.90;;;;;;8403206;28;19951;-71
2024/01/17 17:04:43;;;;;;;;;;;0.30;99.90;;;;;;8420534;27;20038;-71
2024/01/17 17:08:45;;;;;;;;;;;0.30;99.90;;;;;;8426441;28;19923;-71
2024/01/17 17:12:46;;;;;;;;;;;0.30;99.90;;;;;;8424397;28;19928;-72
2024/01/17 17:16:48;;;;;;;;;;;0.40;99.90;;;;;;8433763;27;19976;-71
2024/01/17 17:20:50;;;;;;;;;;;0.40;99.90;;;;;;8431082;28;20201;-71
2024/01/17 17:24:51;;;;;;;;;;;0.40;99.90;;;;;;8426449;28;20363;-72
2024/01/17 17:28:53;;;;;;;;;;;0.30;99.90;;;;;;8431546;28;19976;-72
2024/01/17 17:32:55;;;;;;;;;;;0.30;99.90;;;;;;8425961;28;19981;-72
2024/01/17 17:36:57;;;;;;;;;;;0.30;99.90;;;;;;8442994;27;19924;-71
2024/01/17 17:40:58;;;;;;;;;;;0.30;99.90;;;;;;8430996;28;20374;-71
2024/01/17 17:45:00;;;;;;;;;;;0.30;99.90;;;;;;8440128;27;19924;-72
2024/01/17 17:49:02;;;;;;;;;;;0.30;99.90;;;;;;8420527;28;19928;-71
2024/01/17 17:53:04;;;;;;;;;;;0.20;99.90;;;;;;8425246;28;19939;-72
2024/01/17 17:57:06;;;;;;;;;;;0.30;99.90;;;;;;8416039;28;19950;-71
2024/01/17 18:01:07;;;;;;;;;;;0.20;99.90;;;;;;8418625;28;20035;-72
2024/01/17 18:05:10;;;;;;;;;;;0.20;99.90;;;;;;8428372;27;19986;-72
2024/01/17 18:09:12;;;;;;;;;;;0.20;99.90;;;;;;8431861;28;19932;-71
2024/01/17 18:13:13;;;;;;;;;;;0.20;99.90;;;;;;8435487;28;20387;-71
2024/01/17 18:17:15;;;;;;;;;;;0.20;99.90;;;;;;8435904;28;19928;-71
2024/01/17 18:21:17;;;;;;;;;;;0.20;99.90;;;;;;8437702;28;19924;-72
2024/01/17 18:25:19;;;;;;;;;;;0.20;99.90;;;;;;8433838;28;20018;-72
2024/01/17 18:29:20;;;;;;;;;;;0.20;99.90;;;;;;8413213;28;19954;-72
2024/01/17 18:33:23;;;;;;;;;;;0.20;99.90;;;;;;8434163;28;19939;-72
2024/01/17 18:37:25;;;;;;;;;;;0.20;99.90;;;;;;8434216;28;19932;-72
2024/01/17 18:41:26;;;;;;;;;;;0.20;99.90;;;;;;8434267;28;19932;-71
2024/01/17 18:45:28;;;;;;;;;;;0.30;99.90;;;;;;8426616;28;19931;-72
2024/01/17 18:49:30;;;;;;;;;;;0.30;99.90;;;;;;8424991;28;19931;-72
2024/01/17 18:53:35;;;;;;;;;;;0.30;99.90;;;;;;8429653;28;19928;-72
2024/01/17 18:57:36;;;;;;;;;;;0.30;99.90;;;;;;8429658;28;20552;-72
2024/01/17 19:01:39;;;;;;;;;;;0.40;99.90;;;;;;8428024;28;19982;-72
2024/01/17 19:05:41;;;;;;;;;;;0.40;99.90;;;;;;8424652;28;19979;-72
2024/01/17 19:09:42;;;;;;;;;;;0.40;99.90;;;;;;8411003;28;19955;-71
2024/01/17 19:13:44;;;;;;;;;;;0.40;99.90;;;;;;8424580;28;19931;-71
2024/01/17 19:17:47;;;;;;;;;;;0.40;99.90;;;;;;8427519;28;19932;-71
2024/01/17 19:21:49;;;;;;;;;;;0.40;99.90;;;;;;8411982;28;20448;-72
2024/01/17 19:25:50;;;;;;;;;;;0.40;99.90;;;;;;8425870;28;19924;-72
2024/01/17 19:29:52;;;;;;;;;;;0.40;99.90;;;;;;8430637;27;19931;-72
2024/01/17 19:33:54;;;;;;;;;;;0.40;99.90;;;;;;8409565;28;19924;-72
2024/01/17 19:38:00;;;;;;;;;;;0.40;99.90;;;;;;8417701;28;19924;-72
2024/01/17 19:42:02;;;;;;;;;;;0.40;99.90;;;;;;8416975;28;20365;-72
2024/01/17 19:46:04;;;;;;;;;;;0.40;99.90;;;;;;8424027;28;19932;-72
2024/01/17 19:50:06;;;;;;;;;;;0.40;99.90;;;;;;8420976;28;19954;-72
2024/01/17 19:54:07;;;;;;;;;;;0.40;99.90;;;;;;8421536;28;19974;-72
2024/01/17 19:58:10;;;;;;;;;;;0.40;99.90;;;;;;8425728;28;19935;-72
2024/01/17 20:02:11;;;;;;;;;;;0.40;99.90;;;;;;8425952;27;20044;-72
2024/01/17 20:06:13;;;;;;;;;;;0.40;99.90;;;;;;8405965;28;19931;-72
2024/01/17 20:10:15;;;;;;;;;;;0.40;99.90;;;;;;8423718;28;20002;-72
2024/01/17 20:14:17;;;;;;;;;;;0.40;99.90;;;;;;8419781;27;19932;-72
2024/01/17 20:18:19;;;;;;;;;;;0.40;99.90;;;;;;8409231;28;19947;-72
2024/01/17 20:22:21;;;;;;;;;;;0.40;99.90;;;;;;8405455;27;19923;-72
2024/01/17 20:26:24;;;;;;;;;;;0.40;99.90;;;;;;8422063;28;20429;-72
2024/01/17 20:30:26;;;;;;;;;;;0.40;99.90;;;;;;8423172;28;20470;-72
2024/01/17 20:34:28;;;;;;;;;;;0.40;99.90;;;;;;8421405;28;20022;-71
2024/01/17 20:38:30;;;;;;;;;;;0.40;99.90;;;;;;8402699;28;20391;-72
2024/01/17 20:42:31;;;;;;;;;;;0.40;99.90;;;;;;8417212;28;19928;-72
2024/01/17 20:46:33;;;;;;;;;;;0.40;99.90;;;;;;8420935;28;19928;-72
2024/01/17 20:50:35;;;;;;;;;;;0.40;99.90;;;;;;8408410;28;19932;-72
2024/01/17 20:54:36;;;;;;;;;;;0.40;99.90;;;;;;8409294;27;20408;-71
2024/01/17 20:58:39;;;;;;;;;;;0.30;99.90;;;;;;8422384;28;19928;-72
2024/01/17 21:02:41;;;;;;;;;;;0.30;99.90;;;;;;8395114;28;19936;-72
2024/01/17 21:06:43;;;;;;;;;;;0.30;99.90;;;;;;8421459;28;20371;-72
2024/01/17 21:10:49;;;;;;;;;;;0.30;99.90;;;;;;8403027;28;19927;-72
2024/01/17 21:14:51;;;;;;;;;;;0.30;99.90;;;;;;8404879;28;19928;-72
2024/01/17 21:18:53;;;;;;;;;;;0.40;99.90;;;;;;8415779;28;19924;-72
2024/01/17 21:22:55;;;;;;;;;;;0.40;99.90;;;;;;8420058;28;19936;-72
2024/01/17 21:26:59;;;;;;;;;;;0.40;99.90;;;;;;8420604;28;19925;-72
2024/01/17 21:31:02;;;;;;;;;;;0.40;99.90;;;;;;8420280;28;19924;-71
2024/01/17 21:35:04;;;;;;;;;;;0.40;99.90;;;;;;8422169;28;19924;-72
2024/01/17 21:39:08;;;;;;;;;;;0.40;99.90;;;;;;8418982;28;19934;-72
2024/01/17 21:43:10;;;;;;;;;;;0.40;99.90;;;;;;8417951;28;19950;-72
2024/01/17 21:47:11;;;;;;;;;;;0.40;99.90;;;;;;8420080;28;20383;-71
2024/01/17 21:51:13;;;;;;;;;;;0.40;99.90;;;;;;8414458;28;19972;-72
2024/01/17 21:55:15;;;;;;;;;;;0.40;99.90;;;;;;8419587;28;19959;-72
2024/01/17 21:59:17;;;;;;;;;;;0.40;99.90;;;;;;8420959;28;20023;-72
2024/01/17 22:03:18;;;;;;;;;;;0.40;99.90;;;;;;8425562;28;20287;-72
2024/01/17 22:07:20;;;;;;;;;;;0.40;99.90;;;;;;8432062;28;19928;-72
2024/01/17 22:11:22;;;;;;;;;;;0.40;99.90;;;;;;8454206;28;19928;-72
2024/01/17 22:15:23;;;;;;;;;;;0.40;99.90;;;;;;8437933;28;19939;-72
2024/01/17 22:24:32;;;;;;;;;;;0.40;99.90;;;;;;8458466;28;19919;-72
2024/01/17 22:28:34;;;;;;;;;;;0.30;99.90;;;;;;8437537;28;19930;-72
2024/01/17 22:32:36;;;;;;;;;;;0.30;99.90;;;;;;8442804;28;19993;-72
2024/01/17 22:36:38;;;;;;;;;;;0.30;99.90;;;;;;8458232;28;19972;-71
2024/01/17 22:40:40;;;;;;;;;;;0.30;99.90;;;;;;8457956;28;19927;-72
2024/01/17 22:44:42;;;;;;;;;;;0.20;99.90;;;;;;8456227;28;19932;-72
2024/01/17 22:48:44;;;;;;;;;;;0.30;99.90;;;;;;8442787;27;20433;-72
2024/01/17 22:52:46;;;;;;;;;;;0.20;99.90;;;;;;8456464;28;19932;-72
2024/01/17 22:56:51;;;;;;;;;;;0.20;99.90;;;;;;8450150;28;20383;-72
2024/01/17 23:00:52;;;;;;;;;;;0.20;99.90;;;;;;8460427;28;19931;-72
2024/01/17 23:04:54;;;;;;;;;;;0.10;99.90;;;;;;8459492;28;19949;-72
2024/01/17 23:08:58;;;;;;;;;;;0.10;99.90;;;;;;8448854;28;19939;-71
2024/01/17 23:13:00;;;;;;;;;;;0.10;99.90;;;;;;8447815;28;19924;-72
2024/01/17 23:17:01;;;;;;;;;;;0.00;99.90;;;;;;8458463;28;19924;-72
2024/01/17 23:21:03;;;;;;;;;;;0.00;99.90;;;;;;8441940;28;19939;-72
2024/01/17 23:25:06;;;;;;;;;;;-0.10;99.90;;;;;;8424901;28;20240;-72
2024/01/17 23:29:07;;;;;;;;;;;-0.10;99.90;;;;;;8432553;28;20003;-72
2024/01/17 23:33:09;;;;;;;;;;;-0.10;99.90;;;;;;8451594;28;20337;-72
2024/01/17 23:37:13;;;;;;;;;;;-0.20;99.90;;;;;;8457759;28;19978;-72
2024/01/17 23:41:14;;;;;;;;;;;-0.20;99.90;;;;;;8457653;27;19927;-72
2024/01/17 23:45:16;;;;;;;;;;;-0.30;99.90;;;;;;8439309;28;20358;-72
2024/01/17 23:49:18;;;;;;;;;;;-0.30;99.90;;;;;;8447181;27;19923;-72
2024/01/17 23:53:20;;;;;;;;;;;-0.40;99.90;;;;;;8434513;28;19924;-72
2024/01/17 23:57:21;;;;;;;;;;;-0.40;99.90;;;;;;8456312;28;19984;-72
